createdAt,value
2022-11-10T00:00:05.527Z,10.51
2022-11-10T00:01:05.482Z,10.49
2022-11-10T00:02:05.485Z,10.49
2022-11-10T00:03:05.468Z,10.51
2022-11-10T00:04:05.487Z,10.42
2022-11-10T00:05:05.459Z,10.46
2022-11-10T00:06:05.439Z,10.46
2022-11-10T00:07:05.480Z,10.47
2022-11-10T00:08:05.425Z,10.44
2022-11-10T00:09:05.399Z,10.49
2022-11-10T00:10:05.396Z,10.42
2022-11-10T00:11:05.395Z,10.51
2022-11-10T00:12:05.365Z,10.47
2022-11-10T00:13:05.354Z,10.46
2022-11-10T00:14:05.364Z,10.54
2022-11-10T00:15:05.329Z,10.51
2022-11-10T00:16:05.343Z,10.51
2022-11-10T00:17:05.320Z,10.44
2022-11-10T00:18:05.305Z,10.52
2022-11-10T00:19:05.281Z,10.51
2022-11-10T00:20:06.307Z,10.51
2022-11-10T00:21:05.264Z,10.42
2022-11-10T00:22:05.277Z,10.44
2022-11-10T00:23:05.246Z,10.43
2022-11-10T00:24:06.240Z,10.47
2022-11-10T00:25:05.239Z,10.49
2022-11-10T00:26:05.221Z,10.49
2022-11-10T00:27:05.218Z,10.44
2022-11-10T00:28:05.193Z,10.43
2022-11-10T00:29:05.174Z,10.42
2022-11-10T00:30:05.704Z,10.42
2022-11-10T00:31:05.151Z,10.38
2022-11-10T00:32:07.691Z,10.36
2022-11-10T00:33:05.206Z,10.43
2022-11-10T00:34:05.123Z,10.38
2022-11-10T00:35:11.676Z,10.43
2022-11-10T00:36:05.106Z,10.38
2022-11-10T00:37:05.087Z,10.39
2022-11-10T00:38:05.108Z,10.38
2022-11-10T00:39:05.075Z,10.38
2022-11-10T00:40:05.076Z,10.36
2022-11-10T00:41:05.052Z,10.43
2022-11-10T00:42:05.030Z,10.42
2022-11-10T00:43:05.028Z,10.44
2022-11-10T00:44:05.681Z,10.38
2022-11-10T00:45:05.679Z,10.38
2022-11-10T00:46:05.038Z,10.36
2022-11-10T00:47:04.980Z,10.35
2022-11-10T00:48:04.977Z,10.39
2022-11-10T00:49:04.956Z,10.34
2022-11-10T00:50:05.015Z,10.38
2022-11-10T00:51:04.940Z,10.31
2022-11-10T00:52:04.945Z,10.32
2022-11-10T00:53:04.937Z,10.28
2022-11-10T00:54:05.684Z,10.34
2022-11-10T00:55:04.921Z,10.34
2022-11-10T00:56:04.887Z,10.36
2022-11-10T00:57:04.891Z,10.34
2022-11-10T00:58:04.863Z,10.36
2022-11-10T00:59:04.870Z,10.26
2022-11-10T01:00:04.863Z,10.29
2022-11-10T01:01:04.897Z,10.35
2022-11-10T01:02:04.826Z,10.35
2022-11-10T01:03:04.830Z,10.32
2022-11-10T01:04:04.797Z,10.26
2022-11-10T01:05:04.808Z,10.29
2022-11-10T01:06:04.776Z,10.34
2022-11-10T01:07:04.799Z,10.28
2022-11-10T01:08:05.692Z,10.24
2022-11-10T01:09:04.759Z,10.20
2022-11-10T01:10:04.727Z,10.18
2022-11-10T01:11:05.684Z,10.18
2022-11-10T01:12:04.724Z,10.17
2022-11-10T01:13:04.702Z,10.20
2022-11-10T01:14:04.682Z,10.20
2022-11-10T01:15:04.673Z,10.24
2022-11-10T01:16:04.678Z,10.20
2022-11-10T01:17:04.650Z,10.20
2022-11-10T01:18:04.680Z,10.20
2022-11-10T01:19:04.626Z,10.28
2022-11-10T01:20:04.637Z,10.22
2022-11-10T01:21:04.605Z,10.18
2022-11-10T01:22:04.585Z,10.20
2022-11-10T01:23:06.209Z,10.25
2022-11-10T01:24:04.561Z,10.20
2022-11-10T01:25:04.561Z,10.17
2022-11-10T01:26:04.563Z,10.24
2022-11-10T01:27:05.574Z,10.17
2022-11-10T01:28:04.547Z,10.22
2022-11-10T01:29:04.514Z,10.20
2022-11-10T01:30:04.502Z,10.17
2022-11-10T01:31:05.180Z,10.24
2022-11-10T01:32:04.491Z,10.14
2022-11-10T01:33:04.485Z,10.16
2022-11-10T01:34:04.474Z,10.17
2022-11-10T01:35:05.185Z,10.22
2022-11-10T01:36:04.441Z,10.22
2022-11-10T01:37:04.433Z,10.17
2022-11-10T01:38:04.433Z,10.14
2022-11-10T01:39:04.399Z,10.18
2022-11-10T01:40:04.448Z,10.22
2022-11-10T01:41:04.379Z,10.24
2022-11-10T01:42:04.372Z,10.20
2022-11-10T01:43:04.360Z,10.22
2022-11-10T01:44:04.368Z,10.11
2022-11-10T01:45:04.339Z,10.10
2022-11-10T01:46:04.332Z,10.18
2022-11-10T01:47:05.181Z,10.14
2022-11-10T01:48:04.314Z,10.17
2022-11-10T01:49:04.299Z,10.11
2022-11-10T01:50:05.363Z,10.13
2022-11-10T01:51:04.269Z,10.14
2022-11-10T01:52:04.268Z,10.18
2022-11-10T01:53:04.252Z,10.18
2022-11-10T01:54:04.236Z,10.20
2022-11-10T01:55:06.217Z,10.13
2022-11-10T01:56:04.230Z,10.16
2022-11-10T01:57:07.710Z,10.16
2022-11-10T01:58:05.178Z,10.20
2022-11-10T01:59:04.187Z,10.17
2022-11-10T02:00:04.172Z,10.18
2022-11-10T02:01:04.210Z,10.18
2022-11-10T02:02:04.159Z,10.16
2022-11-10T02:03:04.144Z,10.22
2022-11-10T02:04:04.136Z,10.13
2022-11-10T02:05:04.115Z,10.22
2022-11-10T02:06:04.121Z,10.10
2022-11-10T02:07:04.160Z,10.16
2022-11-10T02:08:05.142Z,10.16
2022-11-10T02:09:04.083Z,10.22
2022-11-10T02:10:04.063Z,10.11
2022-11-10T02:11:04.070Z,10.13
2022-11-10T02:12:04.044Z,10.07
2022-11-10T02:13:04.050Z,10.11
2022-11-10T02:14:04.018Z,10.13
2022-11-10T02:15:04.000Z,10.07
2022-11-10T02:16:04.018Z,10.07
2022-11-10T02:17:03.982Z,10.18
2022-11-10T02:18:03.969Z,10.16
2022-11-10T02:19:03.978Z,10.09
2022-11-10T02:20:03.958Z,10.10
2022-11-10T02:21:03.940Z,10.17
2022-11-10T02:22:05.006Z,10.17
2022-11-10T02:23:03.901Z,10.06
2022-11-10T02:24:03.908Z,10.10
2022-11-10T02:25:05.189Z,10.13
2022-11-10T02:26:03.881Z,10.06
2022-11-10T02:27:03.876Z,10.02
2022-11-10T02:28:04.694Z,10.02
2022-11-10T02:29:03.875Z,10.04
2022-11-10T02:30:03.856Z,10.01
2022-11-10T02:31:03.831Z,10.04
2022-11-10T02:32:03.792Z,10.07
2022-11-10T02:33:03.815Z,10.11
2022-11-10T02:34:03.796Z,9.99
2022-11-10T02:35:03.793Z,10.04
2022-11-10T02:36:03.790Z,10.01
2022-11-10T02:37:03.764Z,10.09
2022-11-10T02:38:03.761Z,10.06
2022-11-10T02:39:04.812Z,10.01
2022-11-10T02:40:03.738Z,10.01
2022-11-10T02:41:04.699Z,10.10
2022-11-10T02:42:03.726Z,10.04
2022-11-10T02:43:03.700Z,10.11
2022-11-10T02:44:03.700Z,10.07
2022-11-10T02:45:03.670Z,10.01
2022-11-10T02:46:03.659Z,10.11
2022-11-10T02:47:03.685Z,10.06
2022-11-10T02:48:03.632Z,10.02
2022-11-10T02:49:03.639Z,10.13
2022-11-10T02:50:10.187Z,9.99
2022-11-10T02:51:04.679Z,9.96
2022-11-10T02:52:04.181Z,9.96
2022-11-10T02:53:03.610Z,9.98
2022-11-10T02:54:03.582Z,10.02
2022-11-10T02:55:03.572Z,10.07
2022-11-10T02:56:03.555Z,10.11
2022-11-10T02:57:03.548Z,10.10
2022-11-10T02:58:03.538Z,10.02
2022-11-10T02:59:03.508Z,9.99
2022-11-10T03:00:03.513Z,9.99
2022-11-10T03:01:03.543Z,10.13
2022-11-10T03:02:03.478Z,10.02
2022-11-10T03:03:03.471Z,9.99
2022-11-10T03:04:03.460Z,10.02
2022-11-10T03:05:03.441Z,10.01
2022-11-10T03:06:03.440Z,10.01
2022-11-10T03:07:03.525Z,10.02
2022-11-10T03:08:03.416Z,9.98
2022-11-10T03:09:04.191Z,10.04
2022-11-10T03:10:03.414Z,9.96
2022-11-10T03:11:03.401Z,9.92
2022-11-10T03:12:03.374Z,9.99
2022-11-10T03:13:03.353Z,10.02
2022-11-10T03:14:03.375Z,9.98
2022-11-10T03:15:03.343Z,10.01
2022-11-10T03:16:03.350Z,10.02
2022-11-10T03:17:03.325Z,9.99
2022-11-10T03:18:04.325Z,9.99
2022-11-10T03:19:04.190Z,10.09
2022-11-10T03:20:06.176Z,10.02
2022-11-10T03:21:03.271Z,9.98
2022-11-10T03:22:03.273Z,10.04
2022-11-10T03:23:03.269Z,10.04
2022-11-10T03:24:03.240Z,10.02
2022-11-10T03:25:04.190Z,10.02
2022-11-10T03:26:03.241Z,10.02
2022-11-10T03:27:03.236Z,10.02
2022-11-10T03:28:03.197Z,10.16
2022-11-10T03:29:03.188Z,10.02
2022-11-10T03:30:03.171Z,10.06
2022-11-10T03:31:03.166Z,10.10
2022-11-10T03:32:03.175Z,10.13
2022-11-10T03:33:03.138Z,10.09
2022-11-10T03:34:03.134Z,10.13
2022-11-10T03:35:03.129Z,10.14
2022-11-10T03:36:03.110Z,10.02
2022-11-10T03:37:03.101Z,10.14
2022-11-10T03:38:03.104Z,10.10
2022-11-10T03:39:04.098Z,10.13
2022-11-10T03:40:03.057Z,10.13
2022-11-10T03:41:18.874Z,10.16
2022-11-10T03:42:04.053Z,10.17
2022-11-10T03:43:03.033Z,10.09
2022-11-10T03:44:03.030Z,10.13
2022-11-10T03:45:03.008Z,10.07
2022-11-10T03:46:02.993Z,10.07
2022-11-10T03:47:05.708Z,10.07
2022-11-10T03:48:02.973Z,10.11
2022-11-10T03:49:02.995Z,10.07
2022-11-10T03:50:02.967Z,10.18
2022-11-10T03:51:02.953Z,10.10
2022-11-10T03:52:02.932Z,10.17
2022-11-10T03:53:02.915Z,10.17
2022-11-10T03:54:03.940Z,10.17
2022-11-10T03:55:03.730Z,10.17
2022-11-10T03:56:02.888Z,10.06
2022-11-10T03:57:02.883Z,10.11
2022-11-10T03:58:02.873Z,10.14
2022-11-10T03:59:02.854Z,10.17
2022-11-10T04:00:02.850Z,10.10
2022-11-10T04:01:02.881Z,10.13
2022-11-10T04:02:02.864Z,10.11
2022-11-10T04:03:02.813Z,10.17
2022-11-10T04:04:02.813Z,10.07
2022-11-10T04:05:02.784Z,10.13
2022-11-10T04:06:02.771Z,10.04
2022-11-10T04:07:02.821Z,10.22
2022-11-10T04:08:05.689Z,10.18
2022-11-10T04:09:02.772Z,10.10
2022-11-10T04:10:02.730Z,10.04
2022-11-10T04:11:02.719Z,10.07
2022-11-10T04:12:02.712Z,10.17
2022-11-10T04:13:03.761Z,10.16
2022-11-10T04:14:02.698Z,10.17
2022-11-10T04:15:02.682Z,10.16
2022-11-10T04:16:02.656Z,10.11
2022-11-10T04:17:02.666Z,10.14
2022-11-10T04:18:02.640Z,10.16
2022-11-10T04:19:02.654Z,10.10
2022-11-10T04:20:02.613Z,10.22
2022-11-10T04:21:02.609Z,10.10
2022-11-10T04:22:02.594Z,10.04
2022-11-10T04:23:02.624Z,10.17
2022-11-10T04:24:02.569Z,10.09
2022-11-10T04:25:02.599Z,10.11
2022-11-10T04:26:02.548Z,10.06
2022-11-10T04:27:03.202Z,10.07
2022-11-10T04:28:02.527Z,10.13
2022-11-10T04:29:02.522Z,10.20
2022-11-10T04:30:02.534Z,10.13
2022-11-10T04:31:02.503Z,10.16
2022-11-10T04:32:05.188Z,10.11
2022-11-10T04:33:02.500Z,10.10
2022-11-10T04:34:02.458Z,10.09
2022-11-10T04:35:02.461Z,10.04
2022-11-10T04:36:02.441Z,10.02
2022-11-10T04:37:02.459Z,10.07
2022-11-10T04:38:02.411Z,10.01
2022-11-10T04:39:02.412Z,10.04
2022-11-10T04:40:03.197Z,10.10
2022-11-10T04:41:05.284Z,10.11
2022-11-10T04:42:03.057Z,10.06
2022-11-10T04:43:02.404Z,10.02
2022-11-10T04:44:02.356Z,10.01
2022-11-10T04:45:02.377Z,10.13
2022-11-10T04:46:02.348Z,10.11
2022-11-10T04:47:02.361Z,10.04
2022-11-10T04:48:02.315Z,10.09
2022-11-10T04:49:02.292Z,9.99
2022-11-10T04:50:03.304Z,10.02
2022-11-10T04:51:02.277Z,10.04
2022-11-10T04:52:02.341Z,9.99
2022-11-10T04:53:02.280Z,10.04
2022-11-10T04:54:02.245Z,10.02
2022-11-10T04:55:02.231Z,10.02
2022-11-10T04:56:02.222Z,9.95
2022-11-10T04:57:02.220Z,9.98
2022-11-10T04:58:02.198Z,9.99
2022-11-10T04:59:02.188Z,10.01
2022-11-10T05:00:02.173Z,10.06
2022-11-10T05:01:02.253Z,10.04
2022-11-10T05:02:02.171Z,10.06
2022-11-10T05:03:02.239Z,10.04
2022-11-10T05:04:04.200Z,10.06
2022-11-10T05:05:02.117Z,9.93
2022-11-10T05:06:02.133Z,10.04
2022-11-10T05:07:02.118Z,10.09
2022-11-10T05:08:02.094Z,10.02
2022-11-10T05:09:02.099Z,9.93
2022-11-10T05:10:02.092Z,9.95
2022-11-10T05:11:02.052Z,9.98
2022-11-10T05:12:02.034Z,9.92
2022-11-10T05:13:04.700Z,9.98
2022-11-10T05:14:02.024Z,10.01
2022-11-10T05:15:02.003Z,9.95
2022-11-10T05:16:02.048Z,9.96
2022-11-10T05:17:01.982Z,9.96
2022-11-10T05:18:01.996Z,9.95
2022-11-10T05:19:01.970Z,10.02
2022-11-10T05:20:01.965Z,9.95
2022-11-10T05:21:01.943Z,9.96
2022-11-10T05:22:01.960Z,9.86
2022-11-10T05:23:01.921Z,9.86
2022-11-10T05:24:02.928Z,9.89
2022-11-10T05:25:01.922Z,9.85
2022-11-10T05:26:01.887Z,9.88
2022-11-10T05:27:01.904Z,9.86
2022-11-10T05:28:01.874Z,9.95
2022-11-10T05:29:01.857Z,9.89
2022-11-10T05:30:02.857Z,9.91
2022-11-10T05:31:08.696Z,9.91
2022-11-10T05:32:01.853Z,9.92
2022-11-10T05:33:01.813Z,9.88
2022-11-10T05:34:02.879Z,9.83
2022-11-10T05:35:01.781Z,9.96
2022-11-10T05:36:01.781Z,9.91
2022-11-10T05:37:01.766Z,9.88
2022-11-10T05:38:01.775Z,9.89
2022-11-10T05:39:01.743Z,9.93
2022-11-10T05:40:01.735Z,9.92
2022-11-10T05:41:01.721Z,9.85
2022-11-10T05:42:01.736Z,9.92
2022-11-10T05:43:01.729Z,9.96
2022-11-10T05:44:08.204Z,9.88
2022-11-10T05:45:01.674Z,9.88
2022-11-10T05:46:01.682Z,9.92
2022-11-10T05:47:01.659Z,9.92
2022-11-10T05:48:01.651Z,9.91
2022-11-10T05:49:01.655Z,9.81
2022-11-10T05:50:01.650Z,9.85
2022-11-10T05:51:01.608Z,9.89
2022-11-10T05:52:01.605Z,9.86
2022-11-10T05:53:01.592Z,9.85
2022-11-10T05:54:01.605Z,9.83
2022-11-10T05:55:01.577Z,9.88
2022-11-10T05:56:01.561Z,9.80
2022-11-10T05:57:01.544Z,9.85
2022-11-10T05:58:01.534Z,9.85
2022-11-10T05:59:01.727Z,9.85
2022-11-10T06:00:01.519Z,9.85
2022-11-10T06:01:01.504Z,9.91
2022-11-10T06:02:01.484Z,9.80
2022-11-10T06:03:01.493Z,9.81
2022-11-10T06:04:01.529Z,9.80
2022-11-10T06:05:02.497Z,9.81
2022-11-10T06:06:01.476Z,9.85
2022-11-10T06:07:01.505Z,9.83
2022-11-10T06:08:01.421Z,9.83
2022-11-10T06:09:01.423Z,9.81
2022-11-10T06:10:01.393Z,9.78
2022-11-10T06:11:01.406Z,9.81
2022-11-10T06:12:01.375Z,9.80
2022-11-10T06:13:02.436Z,9.80
2022-11-10T06:14:01.356Z,9.81
2022-11-10T06:15:01.354Z,9.78
2022-11-10T06:16:01.336Z,9.81
2022-11-10T06:17:01.339Z,9.85
2022-11-10T06:18:01.322Z,9.80
2022-11-10T06:19:01.305Z,9.81
2022-11-10T06:20:01.290Z,9.83
2022-11-10T06:21:01.284Z,9.80
2022-11-10T06:22:06.439Z,9.83
2022-11-10T06:23:02.283Z,9.89
2022-11-10T06:24:01.259Z,9.89
2022-11-10T06:25:01.233Z,9.93
2022-11-10T06:26:01.223Z,9.88
2022-11-10T06:27:04.207Z,9.88
2022-11-10T06:28:01.198Z,9.88
2022-11-10T06:29:01.216Z,9.96
2022-11-10T06:30:01.177Z,9.93
2022-11-10T06:31:01.198Z,9.93
2022-11-10T06:32:01.153Z,9.89
2022-11-10T06:33:07.720Z,9.99
2022-11-10T06:34:01.696Z,9.91
2022-11-10T06:35:01.157Z,9.91
2022-11-10T06:36:01.695Z,9.91
2022-11-10T06:37:01.228Z,9.95
2022-11-10T06:38:01.109Z,9.95
2022-11-10T06:39:15.709Z,9.96
2022-11-10T06:40:01.062Z,9.91
2022-11-10T06:41:01.063Z,9.85
2022-11-10T06:42:01.066Z,9.88
2022-11-10T06:43:01.708Z,9.95
2022-11-10T06:44:01.063Z,9.91
2022-11-10T06:45:07.697Z,9.93
2022-11-10T06:46:01.012Z,9.95
2022-11-10T06:47:00.992Z,9.83
2022-11-10T06:48:00.981Z,9.85
2022-11-10T06:49:00.961Z,9.83
2022-11-10T06:50:00.980Z,9.83
2022-11-10T06:51:00.946Z,9.86
2022-11-10T06:52:00.955Z,9.83
2022-11-10T06:53:03.027Z,9.81
2022-11-10T06:54:01.709Z,9.85
2022-11-10T06:55:01.707Z,9.83
2022-11-10T06:56:00.906Z,9.86
2022-11-10T06:57:00.883Z,9.91
2022-11-10T06:58:01.708Z,9.85
2022-11-10T06:59:00.850Z,9.81
2022-11-10T07:00:00.849Z,9.88
2022-11-10T07:01:01.783Z,9.85
2022-11-10T07:02:02.732Z,9.83
2022-11-10T07:03:00.809Z,9.83
2022-11-10T07:04:28.398Z,9.89
2022-11-10T07:05:01.782Z,9.91
2022-11-10T07:06:00.784Z,9.92
2022-11-10T07:07:04.331Z,9.93
2022-11-10T07:08:00.765Z,9.89
2022-11-10T07:09:00.782Z,9.89
2022-11-10T07:10:06.517Z,9.86
2022-11-10T07:11:02.698Z,9.96
2022-11-10T07:12:00.722Z,9.92
2022-11-10T07:13:00.728Z,9.85
2022-11-10T07:14:00.708Z,9.92
2022-11-10T07:15:00.678Z,10.02
2022-11-10T07:16:00.686Z,9.95
2022-11-10T07:17:00.670Z,9.89
2022-11-10T07:18:00.663Z,9.92
2022-11-10T07:19:01.211Z,9.91
2022-11-10T07:20:00.619Z,9.89
2022-11-10T07:21:00.615Z,9.91
2022-11-10T07:22:00.603Z,9.96
2022-11-10T07:23:00.779Z,10.06
2022-11-10T07:24:07.212Z,10.02
2022-11-10T07:25:01.227Z,10.09
2022-11-10T07:26:00.558Z,10.04
2022-11-10T07:27:00.554Z,10.01
2022-11-10T07:28:00.528Z,9.98
2022-11-10T07:29:00.527Z,10.06
2022-11-10T07:30:07.209Z,10.07
2022-11-10T07:31:00.498Z,10.01
2022-11-10T07:32:01.200Z,9.99
2022-11-10T07:33:00.497Z,10.14
2022-11-10T07:34:03.205Z,10.10
2022-11-10T07:35:00.454Z,10.09
2022-11-10T07:36:00.439Z,10.11
2022-11-10T07:37:00.438Z,10.10
2022-11-10T07:38:07.213Z,10.18
2022-11-10T07:39:00.437Z,10.10
2022-11-10T07:40:00.424Z,10.18
2022-11-10T07:41:00.406Z,10.10
2022-11-10T07:42:00.377Z,10.16
2022-11-10T07:43:00.360Z,10.13
2022-11-10T07:44:00.373Z,10.10
2022-11-10T07:45:00.342Z,10.20
2022-11-10T07:46:00.340Z,10.20
2022-11-10T07:47:00.331Z,10.20
2022-11-10T07:48:00.337Z,10.24
2022-11-10T07:49:00.294Z,10.24
2022-11-10T07:50:00.296Z,10.20
2022-11-10T07:51:15.206Z,10.28
2022-11-10T07:52:00.267Z,10.29
2022-11-10T07:53:00.720Z,10.34
2022-11-10T07:54:01.210Z,10.29
2022-11-10T07:55:00.234Z,10.28
2022-11-10T07:56:00.263Z,10.36
2022-11-10T07:57:00.204Z,10.36
2022-11-10T07:58:00.206Z,10.43
2022-11-10T07:59:00.176Z,10.44
2022-11-10T08:00:00.717Z,10.42
2022-11-10T08:01:00.161Z,10.52
2022-11-10T08:02:00.243Z,10.47
2022-11-10T08:03:00.143Z,10.49
2022-11-10T08:04:00.149Z,10.51
2022-11-10T08:05:00.126Z,10.54
2022-11-10T08:06:00.709Z,10.55
2022-11-10T08:07:01.274Z,10.57
2022-11-10T08:08:00.247Z,10.65
2022-11-10T08:09:00.236Z,10.65
2022-11-10T08:10:00.718Z,10.58
2022-11-10T08:11:00.706Z,10.66
2022-11-10T08:12:00.101Z,10.65
2022-11-10T08:13:00.042Z,10.72
2022-11-10T08:14:00.020Z,10.72
2022-11-10T08:15:00.249Z,10.78
2022-11-10T08:15:59.999Z,10.63
2022-11-10T08:16:59.980Z,10.78
2022-11-10T08:17:59.985Z,10.70
2022-11-10T08:18:59.973Z,10.81
2022-11-10T08:19:59.955Z,10.84
2022-11-10T08:21:00.230Z,10.86
2022-11-10T08:21:59.951Z,10.78
2022-11-10T08:22:59.915Z,10.84
2022-11-10T08:23:59.916Z,10.84
2022-11-10T08:24:59.898Z,10.87
2022-11-10T08:25:59.920Z,10.98
2022-11-10T08:26:59.923Z,10.87
2022-11-10T08:27:59.906Z,11.01
2022-11-10T08:28:59.854Z,11.01
2022-11-10T08:29:59.850Z,10.91
2022-11-10T08:31:05.197Z,10.95
2022-11-10T08:32:00.825Z,11.02
2022-11-10T08:32:59.808Z,11.08
2022-11-10T08:34:07.743Z,11.02
2022-11-10T08:34:59.801Z,11.06
2022-11-10T08:35:59.777Z,11.12
2022-11-10T08:36:59.782Z,11.12
2022-11-10T08:37:59.759Z,11.17
2022-11-10T08:38:59.741Z,11.12
2022-11-10T08:39:59.743Z,11.17
2022-11-10T08:40:59.725Z,11.12
2022-11-10T08:41:59.713Z,11.21
2022-11-10T08:42:59.722Z,11.27
2022-11-10T08:43:59.711Z,11.30
2022-11-10T08:44:59.678Z,11.12
2022-11-10T08:45:59.737Z,11.17
2022-11-10T08:46:59.660Z,11.28
2022-11-10T08:47:59.641Z,11.26
2022-11-10T08:48:59.766Z,11.28
2022-11-10T08:49:59.622Z,11.27
2022-11-10T08:50:59.611Z,11.26
2022-11-10T08:51:59.599Z,11.39
2022-11-10T08:53:00.310Z,11.33
2022-11-10T08:53:59.733Z,11.39
2022-11-10T08:55:02.216Z,11.33
2022-11-10T08:56:00.208Z,11.41
2022-11-10T08:57:00.204Z,11.49
2022-11-10T08:58:02.204Z,11.54
2022-11-10T08:59:01.254Z,11.53
2022-11-10T09:00:00.236Z,11.59
2022-11-10T09:01:00.211Z,11.57
2022-11-10T09:02:00.229Z,11.57
2022-11-10T09:03:00.207Z,11.53
2022-11-10T09:04:00.208Z,11.57
2022-11-10T09:05:01.322Z,11.67
2022-11-10T09:06:14.205Z,11.75
2022-11-10T09:07:06.277Z,11.74
2022-11-10T09:08:02.233Z,11.79
2022-11-10T09:09:01.235Z,11.78
2022-11-10T09:10:07.370Z,11.78
2022-11-10T09:11:01.246Z,11.87
2022-11-10T09:12:01.241Z,11.90
2022-11-10T09:13:02.218Z,11.94
2022-11-10T09:14:06.212Z,11.94
2022-11-10T09:15:02.213Z,11.90
2022-11-10T09:16:01.261Z,11.97
2022-11-10T09:17:02.223Z,11.96
2022-11-10T09:18:02.207Z,12.01
2022-11-10T09:19:01.353Z,12.03
2022-11-10T09:20:01.295Z,11.98
2022-11-10T09:20:59.278Z,12.07
2022-11-10T09:21:59.264Z,11.98
2022-11-10T09:23:01.789Z,11.98
2022-11-10T09:23:59.240Z,12.07
2022-11-10T09:24:59.236Z,12.08
2022-11-10T09:25:59.235Z,12.04
2022-11-10T09:27:01.723Z,12.05
2022-11-10T09:27:59.714Z,12.08
2022-11-10T09:28:59.189Z,12.15
2022-11-10T09:29:59.175Z,12.16
2022-11-10T09:30:59.183Z,12.07
2022-11-10T09:31:59.186Z,12.19
2022-11-10T09:32:59.154Z,12.18
2022-11-10T09:33:59.128Z,12.23
2022-11-10T09:34:59.120Z,12.30
2022-11-10T09:35:59.112Z,12.23
2022-11-10T09:36:59.101Z,12.31
2022-11-10T09:37:59.090Z,12.40
2022-11-10T09:38:59.101Z,12.40
2022-11-10T09:40:01.341Z,12.49
2022-11-10T09:40:59.056Z,12.51
2022-11-10T09:41:59.046Z,12.46
2022-11-10T09:42:59.024Z,12.58
2022-11-10T09:43:59.042Z,12.55
2022-11-10T09:44:59.700Z,12.61
2022-11-10T09:45:59.720Z,12.51
2022-11-10T09:46:58.998Z,12.62
2022-11-10T09:48:05.732Z,12.56
2022-11-10T09:48:59.242Z,12.71
2022-11-10T09:49:58.964Z,12.71
2022-11-10T09:50:59.710Z,12.73
2022-11-10T09:51:58.934Z,12.79
2022-11-10T09:52:58.920Z,12.79
2022-11-10T09:53:58.914Z,12.89
2022-11-10T09:54:58.914Z,12.84
2022-11-10T09:55:58.891Z,12.85
2022-11-10T09:56:58.895Z,12.91
2022-11-10T09:57:58.863Z,12.95
2022-11-10T09:58:58.859Z,13.03
2022-11-10T09:59:58.870Z,12.92
2022-11-10T10:00:59.780Z,12.92
2022-11-10T10:01:58.869Z,12.99
2022-11-10T10:02:58.808Z,12.95
2022-11-10T10:03:58.818Z,13.12
2022-11-10T10:05:03.844Z,13.09
2022-11-10T10:05:58.793Z,13.13
2022-11-10T10:07:10.822Z,13.13
2022-11-10T10:07:59.915Z,13.09
2022-11-10T10:08:58.741Z,13.14
2022-11-10T10:09:58.754Z,13.16
2022-11-10T10:10:59.714Z,13.31
2022-11-10T10:11:58.708Z,13.24
2022-11-10T10:12:58.793Z,13.24
2022-11-10T10:13:58.685Z,13.36
2022-11-10T10:14:58.678Z,13.31
2022-11-10T10:15:58.666Z,13.24
2022-11-10T10:16:58.666Z,13.29
2022-11-10T10:17:58.651Z,13.25
2022-11-10T10:18:58.758Z,13.29
2022-11-10T10:19:58.636Z,13.29
2022-11-10T10:20:58.611Z,13.38
2022-11-10T10:21:58.596Z,13.35
2022-11-10T10:22:58.603Z,13.44
2022-11-10T10:24:20.162Z,13.50
2022-11-10T10:24:59.570Z,13.54
2022-11-10T10:25:58.548Z,13.55
2022-11-10T10:26:58.542Z,13.51
2022-11-10T10:27:58.521Z,13.54
2022-11-10T10:28:58.540Z,13.57
2022-11-10T10:29:58.517Z,13.57
2022-11-10T10:30:58.507Z,13.63
2022-11-10T10:31:58.478Z,13.59
2022-11-10T10:32:58.480Z,13.55
2022-11-10T10:33:58.472Z,13.59
2022-11-10T10:34:58.471Z,13.55
2022-11-10T10:35:58.449Z,13.61
2022-11-10T10:36:59.224Z,13.68
2022-11-10T10:37:58.410Z,13.72
2022-11-10T10:38:58.411Z,13.73
2022-11-10T10:39:58.749Z,13.68
2022-11-10T10:40:58.391Z,13.68
2022-11-10T10:41:58.386Z,13.73
2022-11-10T10:42:58.365Z,13.71
2022-11-10T10:43:59.216Z,13.90
2022-11-10T10:44:58.411Z,13.90
2022-11-10T10:45:58.753Z,13.99
2022-11-10T10:46:58.321Z,14.01
2022-11-10T10:47:58.299Z,14.08
2022-11-10T10:49:26.865Z,14.06
2022-11-10T10:49:59.283Z,14.06
2022-11-10T10:50:58.288Z,14.08
2022-11-10T10:51:58.285Z,14.06
2022-11-10T10:52:58.252Z,14.13
2022-11-10T10:53:58.272Z,14.16
2022-11-10T10:54:58.231Z,14.24
2022-11-10T10:55:58.224Z,14.21
2022-11-10T10:56:58.213Z,14.27
2022-11-10T10:57:58.204Z,14.23
2022-11-10T10:58:58.714Z,14.39
2022-11-10T10:59:58.193Z,14.31
2022-11-10T11:00:58.244Z,14.48
2022-11-10T11:01:58.801Z,14.46
2022-11-10T11:03:04.143Z,14.52
2022-11-10T11:03:59.715Z,14.41
2022-11-10T11:04:58.122Z,14.49
2022-11-10T11:05:58.106Z,14.48
2022-11-10T11:06:58.160Z,14.59
2022-11-10T11:07:58.729Z,14.49
2022-11-10T11:08:59.701Z,14.53
2022-11-10T11:09:58.081Z,14.44
2022-11-10T11:10:58.063Z,14.46
2022-11-10T11:11:58.724Z,14.52
2022-11-10T11:12:58.053Z,14.53
2022-11-10T11:13:58.020Z,14.45
2022-11-10T11:14:58.038Z,14.53
2022-11-10T11:15:58.023Z,14.54
2022-11-10T11:16:57.993Z,14.53
2022-11-10T11:17:58.723Z,14.48
2022-11-10T11:18:58.721Z,14.53
2022-11-10T11:20:00.030Z,14.53
2022-11-10T11:20:57.972Z,14.45
2022-11-10T11:21:57.933Z,14.41
2022-11-10T11:22:57.904Z,14.52
2022-11-10T11:23:58.739Z,14.56
2022-11-10T11:24:57.899Z,14.67
2022-11-10T11:25:57.883Z,14.79
2022-11-10T11:26:59.749Z,14.64
2022-11-10T11:27:57.873Z,14.74
2022-11-10T11:28:57.851Z,14.69
2022-11-10T11:29:57.846Z,14.79
2022-11-10T11:30:57.827Z,14.86
2022-11-10T11:31:57.830Z,14.85
2022-11-10T11:32:57.809Z,14.91
2022-11-10T11:33:57.797Z,14.90
2022-11-10T11:34:58.720Z,14.91
2022-11-10T11:35:57.777Z,15.00
2022-11-10T11:36:57.772Z,15.03
2022-11-10T11:37:57.736Z,15.13
2022-11-10T11:38:57.738Z,15.15
2022-11-10T11:39:57.754Z,15.18
2022-11-10T11:40:57.719Z,15.05
2022-11-10T11:41:57.746Z,15.12
2022-11-10T11:42:57.710Z,15.12
2022-11-10T11:43:57.690Z,15.09
2022-11-10T11:44:57.673Z,15.11
2022-11-10T11:45:57.683Z,15.15
2022-11-10T11:46:57.649Z,15.25
2022-11-10T11:47:57.659Z,15.30
2022-11-10T11:48:57.760Z,15.30
2022-11-10T11:49:58.220Z,15.33
2022-11-10T11:51:00.228Z,15.34
2022-11-10T11:52:00.219Z,15.33
2022-11-10T11:52:57.585Z,15.43
2022-11-10T11:53:57.584Z,15.28
2022-11-10T11:54:57.573Z,15.33
2022-11-10T11:55:57.565Z,15.35
2022-11-10T11:56:57.530Z,15.37
2022-11-10T11:57:57.538Z,15.51
2022-11-10T11:58:57.510Z,15.49
2022-11-10T11:59:57.503Z,15.58
2022-11-10T12:00:57.514Z,15.55
2022-11-10T12:01:57.482Z,15.48
2022-11-10T12:02:57.567Z,15.43
2022-11-10T12:03:57.453Z,15.51
2022-11-10T12:04:57.456Z,15.58
2022-11-10T12:05:57.459Z,15.66
2022-11-10T12:06:57.471Z,15.71
2022-11-10T12:07:57.418Z,15.68
2022-11-10T12:08:57.406Z,15.70
2022-11-10T12:09:57.398Z,15.59
2022-11-10T12:10:57.401Z,15.71
2022-11-10T12:11:57.401Z,15.70
2022-11-10T12:12:57.360Z,15.73
2022-11-10T12:13:57.346Z,15.78
2022-11-10T12:14:57.341Z,15.73
2022-11-10T12:15:57.352Z,15.64
2022-11-10T12:16:57.348Z,15.71
2022-11-10T12:17:57.299Z,15.62
2022-11-10T12:18:57.300Z,15.64
2022-11-10T12:19:57.277Z,15.43
2022-11-10T12:20:57.294Z,15.46
2022-11-10T12:21:57.283Z,15.16
2022-11-10T12:22:58.239Z,15.22
2022-11-10T12:24:00.227Z,15.22
2022-11-10T12:24:57.220Z,15.30
2022-11-10T12:25:57.727Z,15.13
2022-11-10T12:26:57.240Z,15.11
2022-11-10T12:27:57.203Z,15.03
2022-11-10T12:28:57.181Z,15.04
2022-11-10T12:29:57.168Z,14.87
2022-11-10T12:31:01.600Z,14.87
2022-11-10T12:31:57.151Z,14.74
2022-11-10T12:32:57.163Z,14.80
2022-11-10T12:33:57.126Z,14.79
2022-11-10T12:34:57.115Z,14.79
2022-11-10T12:35:59.743Z,14.80
2022-11-10T12:36:57.104Z,14.82
2022-11-10T12:37:57.264Z,14.67
2022-11-10T12:39:00.400Z,14.82
2022-11-10T12:39:59.734Z,14.83
2022-11-10T12:40:57.053Z,14.85
2022-11-10T12:41:57.036Z,14.95
2022-11-10T12:42:57.272Z,15.15
2022-11-10T12:43:57.033Z,15.28
2022-11-10T12:45:11.739Z,15.38
2022-11-10T12:45:56.991Z,15.52
2022-11-10T12:46:56.991Z,15.55
2022-11-10T12:47:56.973Z,15.59
2022-11-10T12:48:57.000Z,15.52
2022-11-10T12:49:56.944Z,15.64
2022-11-10T12:50:56.937Z,15.70
2022-11-10T12:51:56.934Z,15.67
2022-11-10T12:52:56.935Z,15.59
2022-11-10T12:53:56.926Z,15.67
2022-11-10T12:54:56.908Z,15.68
2022-11-10T12:55:56.876Z,15.64
2022-11-10T12:56:57.260Z,15.64